KCVG/CVG METAR and TAF weather

Enter ICAO airport designator
Station Type Date Time Source
KCVG METAR 2021/09/28 15:52 UTC NOAA

KCVG 281552Z 25007KT 9SM CLR 24/17 A2998 RMK AO2 SLP142 T02440167


Station Type Date Time Source
KCVG Decoded METAR 2021/09/28 15:52 UTC NOAA

CINCINNATI/NORTHERN KY INTERNATIONAL , KY, United States (KCVG) 39-03N 084-40W 269M
Sep 28, 2021 - 11:52 AM EDT / 2021.09.28 1552 UTC
Wind: from the WSW (250 degrees) at 8 MPH (7 KT):0
Visibility: 9 mile(s):0
Sky conditions: clear
Temperature: 75.9 F (24.4 C)
Dew Point: 62.1 F (16.7 C)
Relative Humidity: 62%
Pressure (altimeter): 29.98 in. Hg (1015 hPa)
ob: KCVG 281552Z 25007KT 9SM CLR 24/17 A2998 RMK AO2 SLP142 T02440167
cycle: 16

Station Type Date Time Source
KCVG TAF 2021/09/28 15:12 UTC NOAA

TAF
AMD KCVG 281509Z 2815/2918 26009KT P6SM FEW250
FM281800 29005KT P6SM SCT035
FM282300 33004KT P6SM SCT250
FM290100 01004KT P6SM FEW250
FM290600 08004KT P6SM SCT200

Example: see airport list